Time;durP1;ratioP1;P1;durP2;ratioP2;P2;SDS_P1;SDS_P2;PMS_P1;PMS_P2;Temp;Humidity;BMP_temperature;BMP_pressure;BME280_temperature;BME280_humidity;BME280_pressure;Samples;Min_cycle;Max_cycle;Signal;HPM_P1;HPM_P2
2022/11/01 00:02:05;;;;;;;5.10;4.60;;;22.50;51.40;;;;;;4979283;28;20055;-62
2022/11/01 00:04:32;;;;;;;5.18;4.68;;;22.50;51.40;;;;;;4979400;28;20054;-62
2022/11/01 00:06:59;;;;;;;5.47;4.97;;;22.50;51.40;;;;;;4979047;28;20062;-62
2022/11/01 00:09:26;;;;;;;6.28;5.03;;;22.50;51.40;;;;;;4978887;28;20066;-63
2022/11/01 00:11:53;;;;;;;6.53;5.85;;;22.50;51.40;;;;;;4979770;28;20062;-62
2022/11/01 00:14:20;;;;;;;5.65;5.07;;;22.50;51.40;;;;;;4979350;28;20081;-62
2022/11/01 00:16:48;;;;;;;5.88;5.22;;;22.50;51.40;;;;;;4961082;28;20098;-62
2022/11/01 00:19:15;;;;;;;5.45;4.90;;;22.50;51.40;;;;;;4979187;28;20046;-62
2022/11/01 00:21:42;;;;;;;5.13;4.63;;;22.50;51.40;;;;;;4978886;28;20057;-62
2022/11/01 00:24:09;;;;;;;5.15;4.65;;;22.50;51.40;;;;;;4978960;28;20055;-62
2022/11/01 00:26:36;;;;;;;5.15;4.63;;;22.50;51.30;;;;;;4977555;28;20511;-62
2022/11/01 00:29:04;;;;;;;5.45;4.93;;;22.50;51.40;;;;;;4979006;28;20055;-62
2022/11/01 00:31:31;;;;;;;5.47;4.97;;;22.50;51.40;;;;;;4978802;28;20491;-62
2022/11/01 00:34:02;;;;;;;5.53;5.03;;;22.50;51.40;;;;;;4979042;28;20050;-62
2022/11/01 00:36:30;;;;;;;5.43;4.88;;;22.50;51.40;;;;;;4978697;28;20051;-62
2022/11/01 00:38:57;;;;;;;5.68;5.18;;;22.50;51.40;;;;;;4978745;28;20051;-62
2022/11/01 00:41:24;;;;;;;6.45;5.50;;;22.50;51.40;;;;;;4978440;28;20053;-62
2022/11/01 00:43:51;;;;;;;5.43;4.93;;;22.50;51.40;;;;;;4978567;28;20051;-63
2022/11/01 00:46:18;;;;;;;5.43;4.93;;;22.50;51.40;;;;;;4978480;28;20057;-62
2022/11/01 00:48:46;;;;;;;5.32;4.68;;;22.50;51.40;;;;;;4977534;28;20054;-62
2022/11/01 00:51:13;;;;;;;5.32;4.47;;;22.50;51.40;;;;;;4978661;28;20054;-62
2022/11/01 00:53:40;;;;;;;6.05;5.43;;;22.40;51.40;;;;;;4978524;28;20408;-62
2022/11/01 00:56:07;;;;;;;5.45;4.55;;;22.50;51.40;;;;;;4978248;28;20054;-62
2022/11/01 00:58:34;;;;;;;5.18;4.68;;;22.40;51.40;;;;;;4978455;28;20054;-62
2022/11/01 01:01:02;;;;;;;4.95;4.45;;;22.40;51.40;;;;;;4978576;28;20058;-62
2022/11/01 01:03:29;;;;;;;9.27;5.53;;;22.50;51.50;;;;;;4977878;28;20499;-62
2022/11/01 01:05:56;;;;;;;5.68;5.13;;;22.40;51.50;;;;;;4978390;28;20058;-62
2022/11/01 01:08:24;;;;;;;5.45;4.85;;;22.40;51.40;;;;;;4978409;28;20051;-62
2022/11/01 01:10:51;;;;;;;5.53;5.03;;;22.50;51.50;;;;;;4978018;28;20058;-62
2022/11/01 01:13:19;;;;;;;6.65;5.47;;;22.40;51.40;;;;;;4977586;28;20058;-62
2022/11/01 01:15:46;;;;;;;6.70;5.35;;;22.40;51.50;;;;;;4977841;28;20053;-62
2022/11/01 01:18:14;;;;;;;6.28;5.47;;;22.40;51.50;;;;;;4978017;28;20440;-62
2022/11/01 01:20:41;;;;;;;5.47;4.97;;;22.40;51.50;;;;;;4978266;28;20050;-62
2022/11/01 01:23:08;;;;;;;6.35;5.60;;;22.40;51.50;;;;;;4978093;28;20411;-62
2022/11/01 01:25:39;;;;;;;5.90;5.25;;;22.50;51.50;;;;;;4977949;28;20057;-61
2022/11/01 01:28:06;;;;;;;5.60;5.05;;;22.40;51.50;;;;;;4977801;28;20494;-62
2022/11/01 01:30:33;;;;;;;6.45;5.25;;;22.40;51.50;;;;;;4978123;28;20054;-62
2022/11/01 01:33:00;;;;;;;6.07;5.18;;;22.50;51.50;;;;;;4977756;28;20435;-63
2022/11/01 01:35:28;;;;;;;5.90;5.30;;;22.40;51.50;;;;;;4977928;28;20456;-62
2022/11/01 01:37:55;;;;;;;5.72;4.75;;;22.40;51.50;;;;;;4977693;28;20053;-62
2022/11/01 01:40:22;;;;;;;6.45;4.70;;;22.40;51.50;;;;;;4977713;28;20065;-62
2022/11/01 01:42:49;;;;;;;7.10;5.25;;;22.40;51.50;;;;;;4977948;28;20058;-62
2022/11/01 01:45:28;;;;;;;5.82;5.22;;;22.40;51.50;;;;;;4978485;28;20051;-63
2022/11/01 01:48:01;;;;;;;5.70;5.05;;;22.40;51.50;;;;;;4977833;28;20055;-62
2022/11/01 01:50:56;;;;;;;5.82;5.22;;;22.40;51.60;;;;;;4976819;28;20106;-62
2022/11/01 01:53:30;;;;;;;5.40;4.90;;;22.40;51.50;;;;;;4977758;28;20057;-62
2022/11/01 01:56:11;;;;;;;6.00;5.38;;;22.40;51.50;;;;;;4977627;28;20134;-62
2022/11/01 01:58:43;;;;;;;5.38;4.82;;;22.40;51.50;;;;;;4977795;28;20062;-62
2022/11/01 02:01:11;;;;;;;6.18;5.18;;;22.40;51.60;;;;;;4978681;28;20054;-62
2022/11/01 02:03:40;;;;;;;5.10;4.60;;;22.40;51.50;;;;;;4977940;28;20098;-59
2022/11/01 02:06:17;;;;;;;6.65;5.68;;;22.40;51.50;;;;;;4977882;28;20133;-62
2022/11/01 02:08:48;;;;;;;6.22;5.25;;;22.40;51.50;;;;;;4977296;28;20071;-62
2022/11/01 02:11:17;;;;;;;6.50;5.28;;;22.40;51.50;;;;;;4977560;28;20058;-62
2022/11/01 02:13:44;;;;;;;6.10;5.28;;;22.40;51.50;;;;;;4977571;28;20061;-62
2022/11/01 02:16:40;;;;;;;5.97;5.38;;;22.40;51.40;;;;;;4977616;28;20057;-62
2022/11/01 02:19:39;;;;;;;6.68;4.97;;;22.40;51.40;;;;;;4977527;28;20532;-62
2022/11/01 02:22:24;;;;;;;6.75;5.82;;;22.40;51.40;;;;;;4977786;28;20066;-63
2022/11/01 02:25:30;;;;;;;6.72;5.30;;;22.40;51.40;;;;;;4976298;28;20051;-62
2022/11/01 02:28:36;;;;;;;5.47;4.97;;;22.40;51.30;;;;;;4975854;28;20054;-62
2022/11/01 02:31:39;;;;;;;6.43;5.75;;;22.40;51.30;;;;;;4977656;28;20050;-62
2022/11/01 02:34:17;;;;;;;7.13;5.68;;;22.50;51.40;;;;;;4976500;28;20051;-62
2022/11/01 02:36:51;;;;;;;7.10;5.47;;;22.40;51.40;;;;;;4978482;28;20047;-62
2022/11/01 02:39:21;;;;;;;6.22;5.53;;;22.40;51.30;;;;;;4977608;28;20047;-62
2022/11/01 02:42:05;;;;;;;6.30;5.30;;;22.40;51.40;;;;;;4980722;28;20062;-62
2022/11/01 02:44:37;;;;;;;5.90;5.30;;;22.40;51.40;;;;;;4980777;28;20047;-62
2022/11/01 02:47:06;;;;;;;6.93;5.90;;;22.40;51.40;;;;;;4980328;28;20509;-62
2022/11/01 02:49:45;;;;;;;8.23;5.90;;;22.40;51.40;;;;;;4980629;28;20055;-62
2022/11/01 02:52:20;;;;;;;7.10;5.55;;;22.40;51.40;;;;;;4981231;28;20130;-62
2022/11/01 02:54:59;;;;;;;5.60;5.00;;;22.40;51.40;;;;;;4980733;28;20047;-62
2022/11/01 02:57:38;;;;;;;6.35;5.30;;;22.40;51.40;;;;;;4980521;28;20055;-59
2022/11/01 03:00:25;;;;;;;7.82;5.90;;;22.40;51.50;;;;;;4980421;28;20402;-62
2022/11/01 03:03:17;;;;;;;6.10;5.45;;;22.40;51.40;;;;;;4979078;28;20515;-62
2022/11/01 03:06:11;;;;;;;6.90;5.80;;;22.40;51.50;;;;;;4966350;28;20113;-62
2022/11/01 03:08:45;;;;;;;6.35;5.53;;;22.40;51.40;;;;;;4980193;28;20051;-62
2022/11/01 03:11:22;;;;;;;6.55;5.47;;;22.40;51.40;;;;;;4980186;28;20054;-62
2022/11/01 03:14:12;;;;;;;6.45;5.47;;;22.40;51.40;;;;;;4979437;28;20403;-62
2022/11/01 03:17:07;;;;;;;5.82;5.10;;;22.40;51.50;;;;;;4980832;28;20046;-60
2022/11/01 03:19:43;;;;;;;7.10;5.90;;;22.40;51.50;;;;;;4980277;28;20046;-62
2022/11/01 03:22:23;;;;;;;6.85;5.65;;;22.40;51.50;;;;;;4980744;28;20046;-63
2022/11/01 03:25:37;;;;;;;7.25;5.57;;;22.40;51.40;;;;;;4980041;28;20503;-62
2022/11/01 03:27:59;;;;;;;8.52;6.20;;;22.40;51.50;;;;;;4979802;28;20408;-62
2022/11/01 03:30:29;;;;;;;6.80;5.82;;;22.40;51.50;;;;;;4980200;28;20061;-62
2022/11/01 03:32:57;;;;;;;6.97;5.80;;;22.40;51.50;;;;;;4979994;28;20061;-62
2022/11/01 03:35:29;;;;;;;9.57;6.68;;;22.40;51.50;;;;;;4979878;28;20133;-62
2022/11/01 03:38:01;;;;;;;8.15;6.22;;;22.40;51.50;;;;;;4979631;28;20051;-62
2022/11/01 03:40:29;;;;;;;7.82;6.13;;;22.40;51.50;;;;;;4979669;28;20047;-62
2022/11/01 03:43:05;;;;;;;6.28;5.55;;;22.40;51.50;;;;;;4979759;28;20058;-62
2022/11/01 03:45:36;;;;;;;8.13;5.97;;;22.40;51.50;;;;;;4980306;28;20050;-63
2022/11/01 03:48:04;;;;;;;7.35;5.82;;;22.40;51.50;;;;;;4979819;28;20434;-62
2022/11/01 03:50:32;;;;;;;8.05;6.10;;;22.40;52.10;;;;;;4979275;28;20047;-62
2022/11/01 03:52:59;;;;;;;7.50;6.55;;;22.40;51.50;;;;;;4979643;28;20055;-63
2022/11/01 03:55:26;;;;;;;7.75;5.97;;;22.40;51.60;;;;;;4979542;28;20491;-63
2022/11/01 03:57:56;;;;;;;8.00;6.57;;;22.40;51.60;;;;;;4979489;28;20055;-63
2022/11/01 04:00:26;;;;;;;8.63;6.13;;;22.40;51.50;;;;;;4979359;28;20055;-63
2022/11/01 04:02:54;;;;;;;8.25;5.70;;;22.40;51.60;;;;;;4979940;28;20058;-62
2022/11/01 04:05:23;;;;;;;7.45;5.88;;;22.40;51.60;;;;;;4979426;28;20054;-62
2022/11/01 04:07:51;;;;;;;8.07;6.18;;;22.40;51.60;;;;;;4979337;28;20051;-62
2022/11/01 04:10:19;;;;;;;7.00;5.88;;;22.30;51.50;;;;;;4979316;28;20058;-62
2022/11/01 04:12:48;;;;;;;8.02;6.22;;;22.40;51.50;;;;;;4962014;28;20484;-62
2022/11/01 04:21:03;;;;;;;6.88;5.93;;;22.40;51.50;;;;;;4979232;28;20107;-62
2022/11/01 04:23:30;;;;;;;7.97;6.25;;;22.40;51.50;;;;;;4978721;28;20054;-63
2022/11/01 04:25:57;;;;;;;8.65;6.80;;;22.40;51.40;;;;;;4977865;28;20050;-62
2022/11/01 04:28:25;;;;;;;7.72;6.05;;;22.40;51.40;;;;;;4978985;28;20460;-63
2022/11/01 04:30:52;;;;;;;7.05;6.15;;;22.40;51.40;;;;;;4979604;28;20051;-62
2022/11/01 04:33:19;;;;;;;7.78;6.15;;;22.40;51.40;;;;;;4977657;28;20520;-62
2022/11/01 04:35:46;;;;;;;7.82;6.82;;;22.40;51.40;;;;;;4978171;28;20472;-62
2022/11/01 04:38:14;;;;;;;8.15;6.32;;;22.40;51.40;;;;;;4978761;28;20062;-62
2022/11/01 04:40:42;;;;;;;7.78;6.38;;;22.40;51.40;;;;;;4978605;28;20065;-62
2022/11/01 04:43:11;;;;;;;8.82;6.55;;;22.40;51.40;;;;;;4978805;28;20054;-62
2022/11/01 04:45:39;;;;;;;8.38;6.55;;;22.40;51.40;;;;;;4978681;28;20495;-62
2022/11/01 04:48:12;;;;;;;8.85;6.30;;;22.40;51.40;;;;;;4978708;28;20051;-62
2022/11/01 04:50:40;;;;;;;9.40;6.88;;;22.40;51.40;;;;;;4978809;28;20077;-62
2022/11/01 04:53:08;;;;;;;7.30;6.07;;;22.40;51.40;;;;;;4978285;28;20050;-62
2022/11/01 04:55:36;;;;;;;9.10;6.63;;;22.40;51.40;;;;;;4978733;28;20046;-62
2022/11/01 04:58:05;;;;;;;8.27;6.60;;;22.40;51.40;;;;;;4978197;28;20051;-62
2022/11/01 05:00:33;;;;;;;9.32;7.15;;;22.40;51.40;;;;;;4978685;28;20050;-62
2022/11/01 05:03:03;;;;;;;9.30;6.72;;;22.40;51.40;;;;;;4977503;28;20054;-62
2022/11/01 05:05:31;;;;;;;8.32;6.93;;;22.40;51.40;;;;;;4977139;28;20066;-62
2022/11/01 05:08:04;;;;;;;7.53;5.82;;;22.40;51.40;;;;;;4978380;28;20055;-62
2022/11/01 05:10:32;;;;;;;7.38;5.90;;;22.40;51.40;;;;;;4977340;28;20051;-62
2022/11/01 05:13:00;;;;;;;8.27;6.63;;;22.40;51.40;;;;;;4978349;28;20051;-62
2022/11/01 05:15:28;;;;;;;10.07;7.00;;;22.30;51.40;;;;;;4978096;28;20054;-62
2022/11/01 05:17:58;;;;;;;8.23;6.90;;;22.40;51.40;;;;;;4978127;28;20051;-62
2022/11/01 05:20:25;;;;;;;9.40;6.35;;;22.40;51.40;;;;;;4978370;28;20403;-58
2022/11/01 05:22:57;;;;;;;9.73;7.80;;;22.30;51.40;;;;;;4976999;28;20055;-62
2022/11/01 05:25:25;;;;;;;9.27;6.88;;;22.40;51.50;;;;;;4978023;28;20085;-62
2022/11/01 05:28:04;;;;;;;10.02;7.15;;;22.40;51.50;;;;;;4976948;28;20591;-62
2022/11/01 05:30:32;;;;;;;8.38;6.43;;;22.40;51.50;;;;;;4977951;28;20507;-62
2022/11/01 05:33:00;;;;;;;9.00;7.07;;;22.30;51.40;;;;;;4978077;28;20416;-62
2022/11/01 05:35:28;;;;;;;8.98;7.05;;;22.40;52.00;;;;;;4978133;28;20050;-62
2022/11/01 05:37:56;;;;;;;11.90;8.52;;;22.40;51.40;;;;;;4978139;28;20055;-62
2022/11/01 05:40:24;;;;;;;11.05;8.50;;;22.40;51.30;;;;;;4977990;28;20055;-62
2022/11/01 05:42:51;;;;;;;10.55;7.75;;;22.40;51.80;;;;;;4978040;28;20468;-62
2022/11/01 05:45:18;;;;;;;14.00;8.55;;;22.30;51.20;;;;;;4977759;28;20050;-63
2022/11/01 05:47:45;;;;;;;11.52;8.68;;;22.40;51.10;;;;;;4977677;28;20047;-62
2022/11/01 05:50:15;;;;;;;11.52;8.77;;;22.40;51.10;;;;;;4978098;28;20069;-62
2022/11/01 05:52:42;;;;;;;11.98;8.88;;;22.40;51.10;;;;;;4977862;28;20050;-62
2022/11/01 05:55:10;;;;;;;12.07;8.50;;;22.40;51.00;;;;;;4977706;28;20043;-62
2022/11/01 05:57:37;;;;;;;13.50;8.98;;;22.40;51.00;;;;;;4977780;28;20055;-62
2022/11/01 06:00:06;;;;;;;13.27;9.52;;;22.40;51.00;;;;;;4977718;28;20079;-62
2022/11/01 06:02:33;;;;;;;13.52;8.75;;;22.40;50.90;;;;;;4977687;28;20090;-62
2022/11/01 06:05:00;;;;;;;14.10;9.88;;;22.40;50.90;;;;;;4977961;28;20054;-62
2022/11/01 06:07:29;;;;;;;13.73;9.45;;;22.40;50.90;;;;;;4977516;28;20137;-62
2022/11/01 06:09:56;;;;;;;14.05;9.80;;;22.40;50.80;;;;;;4977943;28;20055;-62
2022/11/01 06:12:24;;;;;;;13.65;9.73;;;22.40;50.80;;;;;;4977711;28;20050;-62
2022/11/01 06:14:51;;;;;;;13.93;8.80;;;22.40;50.80;;;;;;4981601;28;20102;-62
2022/11/01 06:17:18;;;;;;;14.75;9.00;;;22.40;50.70;;;;;;4980985;28;20065;-62
2022/11/01 06:19:45;;;;;;;15.95;11.20;;;22.40;50.70;;;;;;4981488;28;20149;-62
2022/11/01 06:22:12;;;;;;;12.82;9.40;;;22.40;50.70;;;;;;4981292;28;20058;-62
2022/11/01 06:24:40;;;;;;;13.48;9.52;;;22.40;50.60;;;;;;4981305;28;20051;-62
2022/11/01 06:27:07;;;;;;;15.50;9.32;;;22.40;50.60;;;;;;4980933;28;20062;-62
2022/11/01 06:29:38;;;;;;;13.73;9.98;;;22.40;50.60;;;;;;4980933;28;20407;-62
2022/11/01 06:32:05;;;;;;;15.38;11.32;;;22.40;50.50;;;;;;4981187;28;20090;-62
2022/11/01 06:34:33;;;;;;;12.95;9.65;;;22.40;50.50;;;;;;4980937;28;20138;-63
2022/11/01 06:37:01;;;;;;;14.98;10.25;;;22.40;50.40;;;;;;4980041;28;20138;-62
2022/11/01 06:39:28;;;;;;;13.95;9.50;;;22.40;50.40;;;;;;4980587;28;20046;-60
2022/11/01 06:41:55;;;;;;;13.10;9.77;;;22.40;50.40;;;;;;4981048;28;20051;-62
2022/11/01 06:44:22;;;;;;;14.80;10.27;;;22.40;50.30;;;;;;4979758;28;20051;-62
2022/11/01 06:46:49;;;;;;;15.63;10.20;;;22.40;50.30;;;;;;4980714;28;20047;-62
2022/11/01 06:49:16;;;;;;;13.55;10.15;;;22.40;50.20;;;;;;4980472;28;20062;-62
2022/11/01 06:51:45;;;;;;;13.32;9.50;;;22.40;50.20;;;;;;4980621;28;20142;-62
2022/11/01 06:54:13;;;;;;;14.85;10.50;;;22.50;50.20;;;;;;4979579;28;20051;-62
2022/11/01 06:56:40;;;;;;;15.25;10.70;;;22.50;50.10;;;;;;4980550;28;20051;-62
2022/11/01 06:59:07;;;;;;;14.88;10.32;;;22.50;50.10;;;;;;4980674;28;20077;-59
2022/11/01 07:01:34;;;;;;;13.02;10.10;;;22.50;50.00;;;;;;4979377;28;20050;-63
2022/11/01 07:04:01;;;;;;;13.30;9.85;;;22.50;50.00;;;;;;4980315;28;20047;-63
2022/11/01 07:06:29;;;;;;;16.35;11.05;;;22.50;49.90;;;;;;4980248;28;20053;-62
2022/11/01 07:09:00;;;;;;;13.75;9.70;;;22.50;49.90;;;;;;4980282;28;20054;-63
2022/11/01 07:11:28;;;;;;;15.13;10.27;;;22.60;49.90;;;;;;4979212;28;20053;-62
2022/11/01 07:13:58;;;;;;;14.13;9.85;;;22.60;49.80;;;;;;4980141;28;20120;-62
2022/11/01 07:16:25;;;;;;;14.18;10.10;;;22.60;49.70;;;;;;4980258;28;20101;-62
2022/11/01 07:18:52;;;;;;;15.30;10.35;;;22.60;49.70;;;;;;4980032;28;20054;-62
2022/11/01 07:21:20;;;;;;;13.50;9.70;;;22.70;49.70;;;;;;4980275;28;20049;-62
2022/11/01 07:23:47;;;;;;;13.48;9.27;;;22.60;49.60;;;;;;4979968;28;20496;-62
2022/11/01 07:26:15;;;;;;;12.60;9.73;;;22.70;49.60;;;;;;4979647;28;20073;-62
2022/11/01 07:28:42;;;;;;;13.45;10.20;;;22.70;49.60;;;;;;4980179;28;20054;-62
2022/11/01 07:31:09;;;;;;;13.50;9.88;;;22.70;49.50;;;;;;4980154;28;20054;-63
2022/11/01 07:33:36;;;;;;;16.25;11.43;;;22.70;49.40;;;;;;4962837;28;20054;-63
2022/11/01 07:36:04;;;;;;;12.65;9.85;;;22.80;49.40;;;;;;4979664;28;20047;-62
2022/11/01 07:38:31;;;;;;;13.80;10.07;;;22.80;49.30;;;;;;4979682;28;20051;-62
2022/11/01 07:40:58;;;;;;;14.82;9.38;;;22.90;49.20;;;;;;4979999;28;20050;-62
2022/11/01 07:43:25;;;;;;;14.15;9.93;;;22.90;49.10;;;;;;4979712;28;20054;-62
2022/11/01 07:45:52;;;;;;;14.20;10.02;;;22.90;49.00;;;;;;4979902;28;20050;-59
2022/11/01 07:48:19;;;;;;;15.18;10.98;;;23.00;49.00;;;;;;4979648;28;20510;-62
2022/11/01 07:50:46;;;;;;;14.95;9.68;;;23.00;48.90;;;;;;4979756;28;20109;-62
2022/11/01 07:53:16;;;;;;;14.52;10.50;;;23.00;48.80;;;;;;4979315;28;20061;-63
2022/11/01 07:55:44;;;;;;;13.50;10.20;;;23.10;48.80;;;;;;4978200;28;20472;-62
2022/11/01 07:58:12;;;;;;;13.88;10.00;;;23.00;48.70;;;;;;4978405;28;20074;-63
2022/11/01 08:00:41;;;;;;;14.63;10.15;;;23.10;48.70;;;;;;4979694;28;20070;-63
2022/11/01 08:03:13;;;;;;;12.18;9.25;;;23.10;48.70;;;;;;4979528;28;20050;-62
2022/11/01 08:05:42;;;;;;;17.60;10.02;;;23.10;48.60;;;;;;4979025;28;20050;-63
2022/11/01 08:08:09;;;;;;;12.35;9.50;;;23.10;48.60;;;;;;4979121;28;20057;-63
2022/11/01 08:10:37;;;;;;;13.40;9.85;;;23.10;48.60;;;;;;4977886;28;20491;-63
2022/11/01 08:13:12;;;;;;;11.00;8.75;;;23.10;48.60;;;;;;4979012;28;20057;-63
2022/11/01 08:15:40;;;;;;;11.98;9.25;;;23.10;48.60;;;;;;4979084;28;20061;-61
2022/11/01 08:18:07;;;;;;;11.98;9.07;;;23.10;48.60;;;;;;4978824;28;20061;-62
2022/11/01 08:20:34;;;;;;;12.65;9.20;;;23.10;48.50;;;;;;4978993;28;20051;-62
2022/11/01 08:23:01;;;;;;;13.40;9.93;;;23.10;48.50;;;;;;4979188;28;20047;-62
2022/11/01 08:25:29;;;;;;;11.90;9.50;;;23.10;48.40;;;;;;4978853;28;20133;-62
2022/11/01 08:28:01;;;;;;;12.73;9.02;;;23.20;48.50;;;;;;4979013;28;20058;-62
2022/11/01 08:30:28;;;;;;;11.68;8.52;;;23.20;48.50;;;;;;4977732;28;20392;-62
2022/11/01 08:33:00;;;;;;;12.95;9.35;;;23.20;48.50;;;;;;4978641;28;20065;-62
2022/11/01 08:35:28;;;;;;;13.77;9.52;;;23.20;48.40;;;;;;4978689;28;20047;-63
2022/11/01 08:37:57;;;;;;;13.57;9.63;;;23.20;48.40;;;;;;4977811;28;20066;-63
2022/11/01 08:40:25;;;;;;;12.23;9.00;;;23.30;48.40;;;;;;4978380;28;20047;-63
2022/11/01 08:42:52;;;;;;;13.15;9.15;;;23.20;48.40;;;;;;4978595;28;20050;-62
2022/11/01 08:45:19;;;;;;;12.60;9.55;;;23.30;48.40;;;;;;4978577;28;20046;-63
2022/11/01 08:47:46;;;;;;;13.07;9.35;;;23.30;48.40;;;;;;4977491;28;20061;-62
2022/11/01 08:50:15;;;;;;;12.10;9.13;;;23.30;48.40;;;;;;4977255;28;20058;-63
2022/11/01 08:52:43;;;;;;;11.37;8.30;;;23.30;48.30;;;;;;4978631;28;20081;-62
2022/11/01 08:55:10;;;;;;;13.30;9.25;;;23.30;48.30;;;;;;4978351;28;20046;-62
2022/11/01 08:57:37;;;;;;;12.75;8.70;;;23.30;48.30;;;;;;4978553;28;20055;-62
2022/11/01 09:00:12;;;;;;;11.25;8.48;;;23.30;48.20;;;;;;4978598;28;20058;-62
2022/11/01 09:02:39;;;;;;;9.98;8.27;;;23.30;48.20;;;;;;4978554;28;20055;-62
2022/11/01 09:05:07;;;;;;;10.02;8.10;;;23.30;48.20;;;;;;4978221;28;20134;-62
2022/11/01 09:07:35;;;;;;;9.95;8.23;;;23.40;48.20;;;;;;4977139;28;20051;-62
2022/11/01 09:10:04;;;;;;;11.43;8.20;;;23.30;48.10;;;;;;4978307;28;20050;-62
2022/11/01 09:12:31;;;;;;;12.00;8.27;;;23.40;48.20;;;;;;4977206;28;20050;-63
2022/11/01 09:14:58;;;;;;;11.23;8.15;;;23.40;48.10;;;;;;4979133;28;20117;-62
2022/11/01 09:17:25;;;;;;;9.70;8.25;;;23.40;48.10;;;;;;4978372;28;20086;-62
2022/11/01 09:19:52;;;;;;;9.15;7.57;;;23.40;48.10;;;;;;4978348;28;20054;-62
2022/11/01 09:22:19;;;;;;;12.23;8.48;;;23.40;48.00;;;;;;4978230;28;20101;-62
2022/11/01 09:24:46;;;;;;;10.45;8.23;;;23.40;48.00;;;;;;4978886;28;20393;-63
2022/11/01 09:27:14;;;;;;;10.93;8.73;;;23.40;48.00;;;;;;4978407;28;20055;-62
2022/11/01 09:29:41;;;;;;;10.35;7.85;;;23.50;48.00;;;;;;4978248;28;20051;-62
2022/11/01 09:32:12;;;;;;;10.98;8.77;;;23.50;48.00;;;;;;4978187;28;20046;-62
2022/11/01 09:34:39;;;;;;;9.40;7.57;;;23.50;47.90;;;;;;4977872;28;20062;-62
2022/11/01 09:37:06;;;;;;;10.82;8.00;;;23.50;47.90;;;;;;4976724;28;20047;-62
2022/11/01 09:39:33;;;;;;;9.65;7.45;;;23.60;47.90;;;;;;4978150;28;20051;-62
2022/11/01 09:42:03;;;;;;;11.43;8.15;;;23.60;47.90;;;;;;4977862;28;20054;-62
2022/11/01 09:44:38;;;;;;;10.95;8.32;;;23.60;47.90;;;;;;4976922;28;20411;-62
2022/11/01 09:47:13;;;;;;;8.85;7.40;;;23.60;47.90;;;;;;4977662;28;20057;-62
2022/11/01 09:49:45;;;;;;;10.75;8.10;;;23.60;47.90;;;;;;4981965;28;20066;-62
2022/11/01 09:52:19;;;;;;;10.05;7.40;;;23.60;47.90;;;;;;4964600;28;20047;-62
2022/11/01 09:54:47;;;;;;;10.63;8.13;;;23.60;47.80;;;;;;4981713;28;20054;-62
2022/11/01 09:57:39;;;;;;;11.32;8.40;;;23.60;47.80;;;;;;4981693;28;20050;-62
2022/11/01 10:00:18;;;;;;;9.73;7.32;;;23.60;48.30;;;;;;4981724;28;20054;-63
2022/11/01 10:03:20;;;;;;;10.60;7.28;;;23.60;47.80;;;;;;4981537;28;20059;-62
2022/11/01 10:06:01;;;;;;;10.35;7.93;;;23.70;47.80;;;;;;4981580;28;20491;-62
2022/11/01 10:08:57;;;;;;;9.35;6.68;;;23.70;47.80;;;;;;4981323;28;20051;-63
2022/11/01 10:11:52;;;;;;;9.68;7.65;;;23.70;47.80;;;;;;4980258;28;20058;-63
2022/11/01 10:14:43;;;;;;;9.25;7.00;;;23.70;47.80;;;;;;4981429;28;20055;-63
2022/11/01 10:17:16;;;;;;;8.75;7.28;;;23.70;47.80;;;;;;4980275;28;20051;-63
2022/11/01 10:19:47;;;;;;;8.80;7.60;;;23.70;47.80;;;;;;4981575;28;20055;-63
2022/11/01 10:22:18;;;;;;;9.95;7.53;;;23.70;47.80;;;;;;4980988;28;20058;-63
2022/11/01 10:25:03;;;;;;;10.43;7.45;;;23.70;47.80;;;;;;4981120;28;20150;-63
2022/11/01 10:28:04;;;;;;;8.90;6.65;;;23.70;47.80;;;;;;4980487;28;20106;-63
2022/11/01 10:30:42;;;;;;;10.43;7.82;;;23.70;47.80;;;;;;4980970;28;20046;-63
2022/11/01 10:33:32;;;;;;;8.52;6.97;;;23.70;47.80;;;;;;4981887;28;20050;-63
2022/11/01 10:36:04;;;;;;;10.10;7.70;;;23.70;47.80;;;;;;4981047;28;20055;-63
2022/11/01 10:38:47;;;;;;;8.35;6.70;;;23.70;47.80;;;;;;4979582;28;20051;-63
2022/11/01 10:41:49;;;;;;;9.48;7.07;;;23.70;47.80;;;;;;4980719;28;20455;-63
2022/11/01 10:44:27;;;;;;;8.50;7.00;;;23.70;47.80;;;;;;4980885;28;20054;-62
2022/11/01 10:46:56;;;;;;;7.05;6.35;;;23.80;47.80;;;;;;4979665;28;20043;-63
2022/11/01 10:49:37;;;;;;;9.70;7.07;;;23.80;47.80;;;;;;4979724;28;20094;-62
2022/11/01 10:52:29;;;;;;;10.15;7.45;;;23.80;47.80;;;;;;4980437;28;20054;-63
2022/11/01 10:54:58;;;;;;;8.65;7.25;;;23.80;47.80;;;;;;4980364;28;20062;-63
2022/11/01 10:57:40;;;;;;;8.87;7.27;;;23.80;47.80;;;;;;4980847;28;20125;-62
2022/11/01 11:00:14;;;;;;;8.80;7.20;;;23.80;47.80;;;;;;4979855;28;20307;-62
2022/11/01 11:02:52;;;;;;;10.77;7.47;;;23.80;47.80;;;;;;4980272;28;20054;-62
2022/11/01 11:05:21;;;;;;;9.80;7.05;;;23.80;47.80;;;;;;4980532;28;20057;-62
2022/11/01 11:07:49;;;;;;;9.57;6.32;;;23.80;47.70;;;;;;4980371;28;20508;-63
2022/11/01 11:10:26;;;;;;;8.85;6.82;;;23.80;47.70;;;;;;4980185;28;20057;-62
2022/11/01 11:13:01;;;;;;;11.68;7.25;;;23.80;47.70;;;;;;4980212;28;20054;-62
2022/11/01 11:15:59;;;;;;;8.63;7.18;;;23.90;47.70;;;;;;4980235;28;20047;-62
2022/11/01 11:18:37;;;;;;;8.13;6.88;;;23.90;47.70;;;;;;4981226;28;20062;-62
2022/11/01 11:21:10;;;;;;;9.65;7.45;;;23.90;47.70;;;;;;4980487;28;20050;-63
2022/11/01 11:23:43;;;;;;;9.07;7.13;;;23.90;47.70;;;;;;4979871;28;20094;-63
2022/11/01 11:26:15;;;;;;;8.68;6.55;;;23.90;47.70;;;;;;4980082;28;20054;-62
2022/11/01 11:28:47;;;;;;;11.52;7.22;;;23.90;47.70;;;;;;4980216;28;20058;-61
2022/11/01 11:31:21;;;;;;;7.55;6.53;;;23.90;47.60;;;;;;4979878;28;20119;-62
2022/11/01 11:33:59;;;;;;;12.05;7.40;;;23.90;47.60;;;;;;4963334;28;20054;-63
2022/11/01 11:36:37;;;;;;;8.80;6.90;;;24.00;47.60;;;;;;4979698;28;20050;-63
2022/11/01 11:39:26;;;;;;;7.32;6.32;;;24.00;47.60;;;;;;4978854;28;20392;-63
2022/11/01 11:42:08;;;;;;;10.18;6.90;;;24.00;47.50;;;;;;4979889;28;20051;-62
2022/11/01 11:45:11;;;;;;;13.38;6.75;;;24.00;47.50;;;;;;4979745;28;20051;-62
2022/11/01 11:47:38;;;;;;;8.30;6.68;;;24.00;47.40;;;;;;4979339;28;20050;-63
2022/11/01 11:50:25;;;;;;;8.23;6.30;;;24.00;47.30;;;;;;4979854;28;20495;-62
2022/11/01 11:53:16;;;;;;;8.85;6.28;;;24.00;47.30;;;;;;4979567;28;20051;-63
2022/11/01 11:55:58;;;;;;;10.02;6.53;;;24.00;47.20;;;;;;4979691;28;20077;-63
2022/11/01 11:58:47;;;;;;;8.40;6.55;;;24.00;47.20;;;;;;4979461;28;20054;-62
2022/11/01 12:01:21;;;;;;;9.05;6.25;;;24.10;47.10;;;;;;4979242;28;20055;-62
2022/11/01 12:03:56;;;;;;;9.57;7.32;;;24.10;47.10;;;;;;4978304;28;20121;-63
2022/11/01 12:06:26;;;;;;;10.07;6.20;;;24.10;47.10;;;;;;4979229;28;20062;-63
2022/11/01 12:08:58;;;;;;;9.95;6.22;;;24.10;47.00;;;;;;4979549;28;20047;-63
2022/11/01 12:11:38;;;;;;;8.55;6.78;;;24.10;46.90;;;;;;4979335;28;20078;-62
2022/11/01 12:14:23;;;;;;;6.80;6.13;;;24.10;46.90;;;;;;4978951;28;20499;-62
2022/11/01 12:16:50;;;;;;;10.40;6.18;;;24.10;46.90;;;;;;4979714;28;20055;-63
2022/11/01 12:19:28;;;;;;;8.75;6.72;;;24.10;46.90;;;;;;4979178;28;20054;-62
2022/11/01 12:22:01;;;;;;;8.98;6.28;;;24.20;46.90;;;;;;4977834;28;20051;-62
2022/11/01 12:24:42;;;;;;;8.50;6.30;;;24.10;46.90;;;;;;4979094;28;20059;-62
2022/11/01 12:27:14;;;;;;;11.75;7.13;;;24.10;46.90;;;;;;4979071;28;20121;-63
2022/11/01 12:29:53;;;;;;;10.23;6.55;;;24.10;46.90;;;;;;4978586;28;20070;-62
2022/11/01 12:32:31;;;;;;;6.97;5.95;;;24.10;46.80;;;;;;4978704;28;20050;-63
2022/11/01 12:35:02;;;;;;;8.07;6.30;;;24.10;46.80;;;;;;4979105;28;20061;-62
2022/11/01 12:37:53;;;;;;;10.75;5.57;;;24.10;46.80;;;;;;4978443;28;20126;-63
2022/11/01 12:40:35;;;;;;;9.38;4.95;;;24.20;46.80;;;;;;4977197;28;20058;-63
2022/11/01 12:43:32;;;;;;;6.85;5.40;;;24.20;46.70;;;;;;4978520;28;20050;-63
2022/11/01 12:46:09;;;;;;;7.93;5.65;;;24.20;46.70;;;;;;4978790;28;20058;-63
2022/11/01 12:48:42;;;;;;;7.85;5.35;;;24.20;46.70;;;;;;4978305;28;20058;-63
2022/11/01 12:51:26;;;;;;;8.65;5.78;;;24.20;46.60;;;;;;4977494;28;20407;-62
2022/11/01 12:54:10;;;;;;;6.80;5.18;;;24.20;46.60;;;;;;4978543;28;20054;-62
2022/11/01 12:56:38;;;;;;;7.45;5.43;;;24.20;46.60;;;;;;4978633;28;20051;-62
2022/11/01 12:59:12;;;;;;;13.13;6.35;;;24.10;46.60;;;;;;4978481;28;20062;-62
2022/11/01 13:01:52;;;;;;;9.68;6.30;;;24.20;46.70;;;;;;4978251;28;20531;-63
2022/11/01 13:04:34;;;;;;;8.15;6.68;;;24.20;46.60;;;;;;4978548;28;20059;-62
2022/11/01 13:07:35;;;;;;;8.95;5.55;;;24.10;46.60;;;;;;4977486;28;20126;-62
2022/11/01 13:10:14;;;;;;;8.98;6.43;;;24.10;46.60;;;;;;4977559;28;20476;-63
2022/11/01 13:13:09;;;;;;;7.28;5.43;;;24.20;46.70;;;;;;4978267;28;20046;-63
2022/11/01 13:16:02;;;;;;;6.93;5.43;;;24.10;46.60;;;;;;4978062;28;20065;-63
2022/11/01 13:18:57;;;;;;;9.57;6.15;;;24.20;46.70;;;;;;4978377;28;20053;-62